sensor_id;sensor_type;location;lat;lon;timestamp;P1;durP1;ratioP1;P2;durP2;ratioP2
53549;SDS011;67273;52.914;-0.982;2023-03-24T00:02:13;1.33;;;1.02;;
53549;SDS011;67273;52.914;-0.982;2023-03-24T00:04:40;1.75;;;0.98;;
53549;SDS011;67273;52.914;-0.982;2023-03-24T00:07:07;1.50;;;1.20;;
53549;SDS011;67273;52.914;-0.982;2023-03-24T00:09:32;1.45;;;1.05;;
53549;SDS011;67273;52.914;-0.982;2023-03-24T00:12:00;1.92;;;1.33;;
53549;SDS011;67273;52.914;-0.982;2023-03-24T00:14:26;1.45;;;1.00;;
53549;SDS011;67273;52.914;-0.982;2023-03-24T00:16:55;2.08;;;1.08;;
53549;SDS011;67273;52.914;-0.982;2023-03-24T00:19:22;2.60;;;1.23;;
53549;SDS011;67273;52.914;-0.982;2023-03-24T00:21:48;2.22;;;1.33;;
53549;SDS011;67273;52.914;-0.982;2023-03-24T00:24:14;1.60;;;1.10;;
53549;SDS011;67273;52.914;-0.982;2023-03-24T00:26:40;1.88;;;1.10;;
53549;SDS011;67273;52.914;-0.982;2023-03-24T00:29:08;3.60;;;1.40;;
53549;SDS011;67273;52.914;-0.982;2023-03-24T00:31:35;2.25;;;1.40;;
53549;SDS011;67273;52.914;-0.982;2023-03-24T00:34:04;2.00;;;1.10;;
53549;SDS011;67273;52.914;-0.982;2023-03-24T00:36:31;2.25;;;1.30;;
53549;SDS011;67273;52.914;-0.982;2023-03-24T00:38:57;1.83;;;1.30;;
53549;SDS011;67273;52.914;-0.982;2023-03-24T00:41:23;1.85;;;1.00;;
53549;SDS011;67273;52.914;-0.982;2023-03-24T00:43:52;1.73;;;1.10;;
53549;SDS011;67273;52.914;-0.982;2023-03-24T00:46:22;2.83;;;1.38;;
53549;SDS011;67273;52.914;-0.982;2023-03-24T00:48:58;2.28;;;1.20;;
53549;SDS011;67273;52.914;-0.982;2023-03-24T00:51:30;1.63;;;1.13;;
53549;SDS011;67273;52.914;-0.982;2023-03-24T00:53:58;1.30;;;1.00;;
53549;SDS011;67273;52.914;-0.982;2023-03-24T00:56:26;3.35;;;1.30;;
53549;SDS011;67273;52.914;-0.982;2023-03-24T00:58:55;3.00;;;1.38;;
53549;SDS011;67273;52.914;-0.982;2023-03-24T01:01:28;2.00;;;1.10;;
53549;SDS011;67273;52.914;-0.982;2023-03-24T01:03:57;1.95;;;1.13;;
53549;SDS011;67273;52.914;-0.982;2023-03-24T01:06:24;1.20;;;1.02;;
53549;SDS011;67273;52.914;-0.982;2023-03-24T01:08:51;2.35;;;1.20;;
53549;SDS011;67273;52.914;-0.982;2023-03-24T01:11:18;1.52;;;1.08;;
53549;SDS011;67273;52.914;-0.982;2023-03-24T01:13:46;2.20;;;1.30;;
53549;SDS011;67273;52.914;-0.982;2023-03-24T01:16:12;1.70;;;1.00;;
53549;SDS011;67273;52.914;-0.982;2023-03-24T01:18:40;1.63;;;1.20;;
53549;SDS011;67273;52.914;-0.982;2023-03-24T01:21:07;3.25;;;1.33;;
53549;SDS011;67273;52.914;-0.982;2023-03-24T01:23:33;1.65;;;1.20;;
53549;SDS011;67273;52.914;-0.982;2023-03-24T01:26:00;1.63;;;1.00;;
53549;SDS011;67273;52.914;-0.982;2023-03-24T01:28:30;2.22;;;1.20;;
53549;SDS011;67273;52.914;-0.982;2023-03-24T01:30:56;2.65;;;1.35;;
53549;SDS011;67273;52.914;-0.982;2023-03-24T01:33:22;2.65;;;1.33;;
53549;SDS011;67273;52.914;-0.982;2023-03-24T01:35:49;2.47;;;1.45;;
53549;SDS011;67273;52.914;-0.982;2023-03-24T01:38:15;2.53;;;1.30;;
53549;SDS011;67273;52.914;-0.982;2023-03-24T01:40:42;2.95;;;1.30;;
53549;SDS011;67273;52.914;-0.982;2023-03-24T01:43:14;1.67;;;1.08;;
53549;SDS011;67273;52.914;-0.982;2023-03-24T01:45:44;1.88;;;1.30;;
53549;SDS011;67273;52.914;-0.982;2023-03-24T01:48:22;2.75;;;1.40;;
53549;SDS011;67273;52.914;-0.982;2023-03-24T01:50:53;2.80;;;1.20;;
53549;SDS011;67273;52.914;-0.982;2023-03-24T01:53:21;1.80;;;1.23;;
53549;SDS011;67273;52.914;-0.982;2023-03-24T01:55:48;2.10;;;1.20;;
53549;SDS011;67273;52.914;-0.982;2023-03-24T01:58:19;2.60;;;1.30;;
53549;SDS011;67273;52.914;-0.982;2023-03-24T02:01:04;3.28;;;1.25;;
53549;SDS011;67273;52.914;-0.982;2023-03-24T02:03:56;2.80;;;1.27;;
53549;SDS011;67273;52.914;-0.982;2023-03-24T02:06:27;2.92;;;1.33;;
53549;SDS011;67273;52.914;-0.982;2023-03-24T02:08:57;2.70;;;1.40;;
53549;SDS011;67273;52.914;-0.982;2023-03-24T02:11:27;2.20;;;1.40;;
53549;SDS011;67273;52.914;-0.982;2023-03-24T02:13:59;3.58;;;1.50;;
53549;SDS011;67273;52.914;-0.982;2023-03-24T02:16:32;2.00;;;1.17;;
53549;SDS011;67273;52.914;-0.982;2023-03-24T02:19:25;2.33;;;1.40;;
53549;SDS011;67273;52.914;-0.982;2023-03-24T02:22:23;3.42;;;1.40;;
53549;SDS011;67273;52.914;-0.982;2023-03-24T02:28:21;2.67;;;1.50;;
53549;SDS011;67273;52.914;-0.982;2023-03-24T02:31:03;3.15;;;1.70;;
53549;SDS011;67273;52.914;-0.982;2023-03-24T02:46:06;2.78;;;1.38;;
53549;SDS011;67273;52.914;-0.982;2023-03-24T02:48:52;4.00;;;1.63;;
53549;SDS011;67273;52.914;-0.982;2023-03-24T02:51:35;2.78;;;1.60;;
53549;SDS011;67273;52.914;-0.982;2023-03-24T02:54:14;2.85;;;1.40;;
53549;SDS011;67273;52.914;-0.982;2023-03-24T02:56:49;3.70;;;1.85;;
53549;SDS011;67273;52.914;-0.982;2023-03-24T02:59:47;3.20;;;1.60;;
53549;SDS011;67273;52.914;-0.982;2023-03-24T03:02:49;2.65;;;1.40;;
53549;SDS011;67273;52.914;-0.982;2023-03-24T03:05:22;2.93;;;1.43;;
53549;SDS011;67273;52.914;-0.982;2023-03-24T03:08:02;3.80;;;1.65;;
53549;SDS011;67273;52.914;-0.982;2023-03-24T03:10:42;3.90;;;1.50;;
53549;SDS011;67273;52.914;-0.982;2023-03-24T03:13:20;3.08;;;1.30;;
53549;SDS011;67273;52.914;-0.982;2023-03-24T03:16:02;3.05;;;1.55;;
53549;SDS011;67273;52.914;-0.982;2023-03-24T03:18:37;4.57;;;1.60;;
53549;SDS011;67273;52.914;-0.982;2023-03-24T03:21:18;3.63;;;1.52;;
53549;SDS011;67273;52.914;-0.982;2023-03-24T03:23:48;5.05;;;1.70;;
53549;SDS011;67273;52.914;-0.982;2023-03-24T03:26:19;2.25;;;1.33;;
53549;SDS011;67273;52.914;-0.982;2023-03-24T03:28:55;3.60;;;1.63;;
53549;SDS011;67273;52.914;-0.982;2023-03-24T03:31:30;3.30;;;1.60;;
53549;SDS011;67273;52.914;-0.982;2023-03-24T03:34:03;3.00;;;1.30;;
53549;SDS011;67273;52.914;-0.982;2023-03-24T03:36:38;4.40;;;1.98;;
53549;SDS011;67273;52.914;-0.982;2023-03-24T03:39:22;4.30;;;1.98;;
53549;SDS011;67273;52.914;-0.982;2023-03-24T03:42:00;2.83;;;1.45;;
53549;SDS011;67273;52.914;-0.982;2023-03-24T03:44:38;3.45;;;1.40;;
53549;SDS011;67273;52.914;-0.982;2023-03-24T03:47:12;4.57;;;1.70;;
53549;SDS011;67273;52.914;-0.982;2023-03-24T03:49:44;4.47;;;1.90;;
53549;SDS011;67273;52.914;-0.982;2023-03-24T03:52:12;5.10;;;1.67;;
53549;SDS011;67273;52.914;-0.982;2023-03-24T03:54:44;5.97;;;1.83;;
53549;SDS011;67273;52.914;-0.982;2023-03-24T03:57:14;3.58;;;1.65;;
53549;SDS011;67273;52.914;-0.982;2023-03-24T04:00:12;3.70;;;1.45;;
53549;SDS011;67273;52.914;-0.982;2023-03-24T04:02:53;3.35;;;1.95;;
53549;SDS011;67273;52.914;-0.982;2023-03-24T04:05:32;4.83;;;1.90;;
53549;SDS011;67273;52.914;-0.982;2023-03-24T04:08:16;4.75;;;1.90;;
53549;SDS011;67273;52.914;-0.982;2023-03-24T04:11:01;4.00;;;1.53;;
53549;SDS011;67273;52.914;-0.982;2023-03-24T04:17:11;3.92;;;1.70;;
53549;SDS011;67273;52.914;-0.982;2023-03-24T04:23:27;3.53;;;1.70;;
53549;SDS011;67273;52.914;-0.982;2023-03-24T04:26:33;4.18;;;1.58;;
53549;SDS011;67273;52.914;-0.982;2023-03-24T04:29:39;4.45;;;1.88;;
53549;SDS011;67273;52.914;-0.982;2023-03-24T04:32:47;3.80;;;1.70;;
53549;SDS011;67273;52.914;-0.982;2023-03-24T04:35:37;3.47;;;1.80;;
53549;SDS011;67273;52.914;-0.982;2023-03-24T05:05:45;3.63;;;1.83;;
53549;SDS011;67273;52.914;-0.982;2023-03-24T05:08:43;4.65;;;1.75;;
53549;SDS011;67273;52.914;-0.982;2023-03-24T05:11:40;2.38;;;1.50;;
53549;SDS011;67273;52.914;-0.982;2023-03-24T05:14:38;3.65;;;1.80;;
53549;SDS011;67273;52.914;-0.982;2023-03-24T05:17:42;4.28;;;1.92;;
53549;SDS011;67273;52.914;-0.982;2023-03-24T05:20:39;4.40;;;1.90;;
53549;SDS011;67273;52.914;-0.982;2023-03-24T05:40:30;4.35;;;1.83;;
53549;SDS011;67273;52.914;-0.982;2023-03-24T05:43:21;4.18;;;1.90;;
53549;SDS011;67273;52.914;-0.982;2023-03-24T05:46:27;4.82;;;1.88;;
53549;SDS011;67273;52.914;-0.982;2023-03-24T05:49:31;3.28;;;1.65;;
53549;SDS011;67273;52.914;-0.982;2023-03-24T05:52:31;3.70;;;1.70;;
53549;SDS011;67273;52.914;-0.982;2023-03-24T05:59:16;3.33;;;1.60;;
53549;SDS011;67273;52.914;-0.982;2023-03-24T06:02:15;5.28;;;1.90;;
53549;SDS011;67273;52.914;-0.982;2023-03-24T06:05:19;3.90;;;1.90;;
53549;SDS011;67273;52.914;-0.982;2023-03-24T06:08:23;5.35;;;1.75;;
53549;SDS011;67273;52.914;-0.982;2023-03-24T06:11:11;3.25;;;1.77;;
53549;SDS011;67273;52.914;-0.982;2023-03-24T06:20:15;4.53;;;1.90;;
53549;SDS011;67273;52.914;-0.982;2023-03-24T06:23:10;3.72;;;1.67;;
53549;SDS011;67273;52.914;-0.982;2023-03-24T06:26:15;4.32;;;1.83;;
53549;SDS011;67273;52.914;-0.982;2023-03-24T06:29:00;4.68;;;2.03;;
53549;SDS011;67273;52.914;-0.982;2023-03-24T06:31:46;3.60;;;1.75;;
53549;SDS011;67273;52.914;-0.982;2023-03-24T06:34:33;4.93;;;2.10;;
53549;SDS011;67273;52.914;-0.982;2023-03-24T06:37:31;4.07;;;1.75;;
53549;SDS011;67273;52.914;-0.982;2023-03-24T06:40:25;6.68;;;2.40;;
53549;SDS011;67273;52.914;-0.982;2023-03-24T06:43:26;3.90;;;1.83;;
53549;SDS011;67273;52.914;-0.982;2023-03-24T06:46:17;5.78;;;1.90;;
53549;SDS011;67273;52.914;-0.982;2023-03-24T06:49:12;6.00;;;2.00;;
53549;SDS011;67273;52.914;-0.982;2023-03-24T06:52:07;4.32;;;2.00;;
53549;SDS011;67273;52.914;-0.982;2023-03-24T07:01:35;6.13;;;2.28;;
53549;SDS011;67273;52.914;-0.982;2023-03-24T07:04:33;5.93;;;2.17;;
53549;SDS011;67273;52.914;-0.982;2023-03-24T07:07:37;5.03;;;2.22;;
53549;SDS011;67273;52.914;-0.982;2023-03-24T07:10:39;4.63;;;2.05;;
53549;SDS011;67273;52.914;-0.982;2023-03-24T07:13:26;5.00;;;2.17;;
53549;SDS011;67273;52.914;-0.982;2023-03-24T07:16:17;6.18;;;2.20;;
53549;SDS011;67273;52.914;-0.982;2023-03-24T07:19:27;5.35;;;2.10;;
53549;SDS011;67273;52.914;-0.982;2023-03-24T07:22:33;3.80;;;1.60;;
53549;SDS011;67273;52.914;-0.982;2023-03-24T07:25:46;5.72;;;2.28;;
53549;SDS011;67273;52.914;-0.982;2023-03-24T07:29:00;4.95;;;2.00;;
53549;SDS011;67273;52.914;-0.982;2023-03-24T07:32:41;5.18;;;1.95;;
53549;SDS011;67273;52.914;-0.982;2023-03-24T07:35:29;5.78;;;2.30;;
53549;SDS011;67273;52.914;-0.982;2023-03-24T07:38:21;4.30;;;1.73;;
53549;SDS011;67273;52.914;-0.982;2023-03-24T07:40:59;5.38;;;2.10;;
53549;SDS011;67273;52.914;-0.982;2023-03-24T07:47:07;5.07;;;2.10;;
53549;SDS011;67273;52.914;-0.982;2023-03-24T07:50:01;10.02;;;2.08;;
53549;SDS011;67273;52.914;-0.982;2023-03-24T07:52:50;7.38;;;2.45;;
53549;SDS011;67273;52.914;-0.982;2023-03-24T07:55:41;8.57;;;2.50;;
53549;SDS011;67273;52.914;-0.982;2023-03-24T07:58:36;11.75;;;2.78;;
53549;SDS011;67273;52.914;-0.982;2023-03-24T08:01:23;8.77;;;2.85;;
53549;SDS011;67273;52.914;-0.982;2023-03-24T08:04:11;7.88;;;2.60;;
53549;SDS011;67273;52.914;-0.982;2023-03-24T08:07:11;5.43;;;2.15;;
53549;SDS011;67273;52.914;-0.982;2023-03-24T08:09:47;8.18;;;2.88;;
53549;SDS011;67273;52.914;-0.982;2023-03-24T08:12:42;9.25;;;2.65;;
53549;SDS011;67273;52.914;-0.982;2023-03-24T08:15:32;9.57;;;2.80;;
53549;SDS011;67273;52.914;-0.982;2023-03-24T08:18:02;7.93;;;2.72;;
53549;SDS011;67273;52.914;-0.982;2023-03-24T08:20:58;6.63;;;2.83;;
53549;SDS011;67273;52.914;-0.982;2023-03-24T08:23:52;6.53;;;2.70;;
53549;SDS011;67273;52.914;-0.982;2023-03-24T08:26:45;7.93;;;2.53;;
53549;SDS011;67273;52.914;-0.982;2023-03-24T08:29:43;6.88;;;2.30;;
53549;SDS011;67273;52.914;-0.982;2023-03-24T08:32:32;5.30;;;2.40;;
53549;SDS011;67273;52.914;-0.982;2023-03-24T08:35:37;6.40;;;2.47;;
53549;SDS011;67273;52.914;-0.982;2023-03-24T08:38:35;6.57;;;2.30;;
53549;SDS011;67273;52.914;-0.982;2023-03-24T08:44:52;4.57;;;2.10;;
53549;SDS011;67273;52.914;-0.982;2023-03-24T08:47:44;6.15;;;2.38;;
53549;SDS011;67273;52.914;-0.982;2023-03-24T08:50:52;6.88;;;2.63;;
53549;SDS011;67273;52.914;-0.982;2023-03-24T08:53:44;9.20;;;2.67;;
53549;SDS011;67273;52.914;-0.982;2023-03-24T08:56:50;7.00;;;2.60;;
53549;SDS011;67273;52.914;-0.982;2023-03-24T08:59:57;7.60;;;2.40;;
53549;SDS011;67273;52.914;-0.982;2023-03-24T09:02:55;5.90;;;2.60;;
53549;SDS011;67273;52.914;-0.982;2023-03-24T09:06:06;6.70;;;2.45;;
53549;SDS011;67273;52.914;-0.982;2023-03-24T09:09:08;6.00;;;2.47;;
53549;SDS011;67273;52.914;-0.982;2023-03-24T09:12:21;7.55;;;2.28;;
53549;SDS011;67273;52.914;-0.982;2023-03-24T09:15:14;5.68;;;2.47;;
53549;SDS011;67273;52.914;-0.982;2023-03-24T09:18:00;5.90;;;2.35;;
53549;SDS011;67273;52.914;-0.982;2023-03-24T09:21:01;6.03;;;1.98;;
53549;SDS011;67273;52.914;-0.982;2023-03-24T09:23:48;7.90;;;2.55;;
53549;SDS011;67273;52.914;-0.982;2023-03-24T09:30:00;6.07;;;2.50;;
53549;SDS011;67273;52.914;-0.982;2023-03-24T09:36:05;5.68;;;2.47;;
53549;SDS011;67273;52.914;-0.982;2023-03-24T09:39:05;6.65;;;2.70;;
53549;SDS011;67273;52.914;-0.982;2023-03-24T09:42:14;6.15;;;2.53;;
53549;SDS011;67273;52.914;-0.982;2023-03-24T09:45:19;7.45;;;2.53;;
53549;SDS011;67273;52.914;-0.982;2023-03-24T09:48:39;6.70;;;2.95;;
53549;SDS011;67273;52.914;-0.982;2023-03-24T09:55:04;5.85;;;2.60;;
53549;SDS011;67273;52.914;-0.982;2023-03-24T09:58:00;5.88;;;2.58;;
53549;SDS011;67273;52.914;-0.982;2023-03-24T10:00:58;4.45;;;2.22;;
53549;SDS011;67273;52.914;-0.982;2023-03-24T10:04:18;8.07;;;2.20;;
53549;SDS011;67273;52.914;-0.982;2023-03-24T10:10:23;7.10;;;2.55;;
53549;SDS011;67273;52.914;-0.982;2023-03-24T10:13:24;6.20;;;2.55;;
53549;SDS011;67273;52.914;-0.982;2023-03-24T10:16:27;5.80;;;2.20;;
53549;SDS011;67273;52.914;-0.982;2023-03-24T10:35:53;7.28;;;2.60;;
53549;SDS011;67273;52.914;-0.982;2023-03-24T10:38:52;5.30;;;2.22;;
53549;SDS011;67273;52.914;-0.982;2023-03-24T10:42:00;7.10;;;2.80;;
53549;SDS011;67273;52.914;-0.982;2023-03-24T10:45:03;5.85;;;2.50;;
53549;SDS011;67273;52.914;-0.982;2023-03-24T10:48:32;6.00;;;2.45;;
53549;SDS011;67273;52.914;-0.982;2023-03-24T10:55:03;5.18;;;2.45;;
53549;SDS011;67273;52.914;-0.982;2023-03-24T10:58:13;4.72;;;2.00;;
53549;SDS011;67273;52.914;-0.982;2023-03-24T11:01:28;5.85;;;2.58;;
53549;SDS011;67273;52.914;-0.982;2023-03-24T11:04:27;5.28;;;2.08;;
53549;SDS011;67273;52.914;-0.982;2023-03-24T11:07:28;4.55;;;2.00;;
53549;SDS011;67273;52.914;-0.982;2023-03-24T11:10:35;5.65;;;2.38;;
53549;SDS011;67273;52.914;-0.982;2023-03-24T11:13:42;4.47;;;1.85;;
53549;SDS011;67273;52.914;-0.982;2023-03-24T11:17:08;4.90;;;2.20;;
53549;SDS011;67273;52.914;-0.982;2023-03-24T11:20:13;4.88;;;2.10;;
53549;SDS011;67273;52.914;-0.982;2023-03-24T11:26:17;4.95;;;1.95;;
53549;SDS011;67273;52.914;-0.982;2023-03-24T11:29:24;5.75;;;2.20;;
53549;SDS011;67273;52.914;-0.982;2023-03-24T11:32:46;5.45;;;2.42;;
53549;SDS011;67273;52.914;-0.982;2023-03-24T11:35:53;5.70;;;2.13;;
53549;SDS011;67273;52.914;-0.982;2023-03-24T11:39:17;5.07;;;2.10;;
53549;SDS011;67273;52.914;-0.982;2023-03-24T11:42:31;5.00;;;2.10;;
53549;SDS011;67273;52.914;-0.982;2023-03-24T11:45:28;3.50;;;1.73;;
53549;SDS011;67273;52.914;-0.982;2023-03-24T11:48:36;4.53;;;1.98;;
53549;SDS011;67273;52.914;-0.982;2023-03-24T11:51:33;3.55;;;1.90;;
53549;SDS011;67273;52.914;-0.982;2023-03-24T11:54:48;5.20;;;2.10;;
53549;SDS011;67273;52.914;-0.982;2023-03-24T11:57:55;5.28;;;1.90;;
53549;SDS011;67273;52.914;-0.982;2023-03-24T12:00:51;4.07;;;1.90;;
53549;SDS011;67273;52.914;-0.982;2023-03-24T12:04:01;4.85;;;1.92;;
53549;SDS011;67273;52.914;-0.982;2023-03-24T12:10:38;4.20;;;1.67;;
53549;SDS011;67273;52.914;-0.982;2023-03-24T12:13:48;4.43;;;1.90;;
53549;SDS011;67273;52.914;-0.982;2023-03-24T12:23:06;5.00;;;1.70;;
53549;SDS011;67273;52.914;-0.982;2023-03-24T12:26:32;3.50;;;1.75;;
53549;SDS011;67273;52.914;-0.982;2023-03-24T12:39:56;4.50;;;1.92;;
53549;SDS011;67273;52.914;-0.982;2023-03-24T12:43:13;3.72;;;1.73;;
53549;SDS011;67273;52.914;-0.982;2023-03-24T12:46:25;4.45;;;1.67;;
53549;SDS011;67273;52.914;-0.982;2023-03-24T12:53:02;4.57;;;1.83;;
53549;SDS011;67273;52.914;-0.982;2023-03-24T13:02:47;3.58;;;1.50;;
53549;SDS011;67273;52.914;-0.982;2023-03-24T13:05:40;4.22;;;1.55;;
53549;SDS011;67273;52.914;-0.982;2023-03-24T13:09:08;4.18;;;1.60;;
53549;SDS011;67273;52.914;-0.982;2023-03-24T13:15:32;4.38;;;1.75;;
53549;SDS011;67273;52.914;-0.982;2023-03-24T13:21:46;3.70;;;1.63;;
53549;SDS011;67273;52.914;-0.982;2023-03-24T13:24:46;3.38;;;1.40;;
53549;SDS011;67273;52.914;-0.982;2023-03-24T13:27:45;2.80;;;1.30;;
53549;SDS011;67273;52.914;-0.982;2023-03-24T13:37:44;3.63;;;1.50;;
53549;SDS011;67273;52.914;-0.982;2023-03-24T13:40:36;2.53;;;1.20;;
53549;SDS011;67273;52.914;-0.982;2023-03-24T13:56:40;3.25;;;1.35;;
53549;SDS011;67273;52.914;-0.982;2023-03-24T14:06:03;2.58;;;1.30;;
53549;SDS011;67273;52.914;-0.982;2023-03-24T14:09:12;2.70;;;1.15;;
53549;SDS011;67273;52.914;-0.982;2023-03-24T14:15:46;4.13;;;1.38;;
53549;SDS011;67273;52.914;-0.982;2023-03-24T14:21:44;2.38;;;1.17;;
53549;SDS011;67273;52.914;-0.982;2023-03-24T14:24:55;2.25;;;1.17;;
53549;SDS011;67273;52.914;-0.982;2023-03-24T14:40:34;4.63;;;1.23;;
53549;SDS011;67273;52.914;-0.982;2023-03-24T14:43:50;3.97;;;1.33;;
53549;SDS011;67273;52.914;-0.982;2023-03-24T14:46:45;3.80;;;1.27;;
53549;SDS011;67273;52.914;-0.982;2023-03-24T14:49:40;3.78;;;1.40;;
53549;SDS011;67273;52.914;-0.982;2023-03-24T14:52:27;2.67;;;1.33;;
53549;SDS011;67273;52.914;-0.982;2023-03-24T14:55:31;2.75;;;1.45;;
53549;SDS011;67273;52.914;-0.982;2023-03-24T14:58:32;3.58;;;1.42;;
53549;SDS011;67273;52.914;-0.982;2023-03-24T15:01:47;4.45;;;1.77;;
53549;SDS011;67273;52.914;-0.982;2023-03-24T15:05:18;2.75;;;1.30;;
53549;SDS011;67273;52.914;-0.982;2023-03-24T15:08:18;3.78;;;1.40;;
53549;SDS011;67273;52.914;-0.982;2023-03-24T15:14:52;3.45;;;1.33;;
53549;SDS011;67273;52.914;-0.982;2023-03-24T15:17:58;2.70;;;1.17;;
53549;SDS011;67273;52.914;-0.982;2023-03-24T15:21:10;2.40;;;1.20;;
53549;SDS011;67273;52.914;-0.982;2023-03-24T15:24:27;3.72;;;1.10;;
53549;SDS011;67273;52.914;-0.982;2023-03-24T15:27:22;1.98;;;1.20;;
53549;SDS011;67273;52.914;-0.982;2023-03-24T15:30:27;4.20;;;1.35;;
53549;SDS011;67273;52.914;-0.982;2023-03-24T15:33:35;3.83;;;1.23;;
53549;SDS011;67273;52.914;-0.982;2023-03-24T15:37:03;3.45;;;1.23;;
53549;SDS011;67273;52.914;-0.982;2023-03-24T15:40:02;2.20;;;1.02;;
53549;SDS011;67273;52.914;-0.982;2023-03-24T15:43:24;2.00;;;1.00;;
53549;SDS011;67273;52.914;-0.982;2023-03-24T15:49:21;2.17;;;1.10;;
53549;SDS011;67273;52.914;-0.982;2023-03-24T15:52:25;2.40;;;0.98;;
53549;SDS011;67273;52.914;-0.982;2023-03-24T15:55:26;2.58;;;1.10;;
53549;SDS011;67273;52.914;-0.982;2023-03-24T16:01:29;1.83;;;1.00;;
53549;SDS011;67273;52.914;-0.982;2023-03-24T16:07:53;3.88;;;1.33;;
53549;SDS011;67273;52.914;-0.982;2023-03-24T16:13:43;3.20;;;1.40;;
53549;SDS011;67273;52.914;-0.982;2023-03-24T16:16:25;3.72;;;1.38;;
53549;SDS011;67273;52.914;-0.982;2023-03-24T16:25:17;3.88;;;1.45;;
53549;SDS011;67273;52.914;-0.982;2023-03-24T16:27:52;2.83;;;1.27;;
53549;SDS011;67273;52.914;-0.982;2023-03-24T16:30:40;1.88;;;1.20;;
53549;SDS011;67273;52.914;-0.982;2023-03-24T16:33:42;2.05;;;1.20;;
53549;SDS011;67273;52.914;-0.982;2023-03-24T16:36:44;2.50;;;1.20;;
53549;SDS011;67273;52.914;-0.982;2023-03-24T16:39:49;2.80;;;1.20;;
53549;SDS011;67273;52.914;-0.982;2023-03-24T16:42:37;2.63;;;1.30;;
53549;SDS011;67273;52.914;-0.982;2023-03-24T16:45:43;2.13;;;1.05;;
53549;SDS011;67273;52.914;-0.982;2023-03-24T16:49:03;2.03;;;1.20;;
53549;SDS011;67273;52.914;-0.982;2023-03-24T16:51:48;2.70;;;1.27;;
53549;SDS011;67273;52.914;-0.982;2023-03-24T16:54:36;1.88;;;1.25;;
53549;SDS011;67273;52.914;-0.982;2023-03-24T17:00:53;2.97;;;1.45;;
53549;SDS011;67273;52.914;-0.982;2023-03-24T17:03:46;3.15;;;1.20;;
53549;SDS011;67273;52.914;-0.982;2023-03-24T17:06:33;2.47;;;1.20;;
53549;SDS011;67273;52.914;-0.982;2023-03-24T17:09:26;1.27;;;1.02;;
53549;SDS011;67273;52.914;-0.982;2023-03-24T17:12:18;2.78;;;1.30;;
53549;SDS011;67273;52.914;-0.982;2023-03-24T17:18:02;2.42;;;1.10;;
53549;SDS011;67273;52.914;-0.982;2023-03-24T17:21:04;3.17;;;1.40;;
53549;SDS011;67273;52.914;-0.982;2023-03-24T17:24:12;3.53;;;1.40;;
53549;SDS011;67273;52.914;-0.982;2023-03-24T17:27:19;3.85;;;1.40;;
53549;SDS011;67273;52.914;-0.982;2023-03-24T17:30:27;3.28;;;1.52;;
53549;SDS011;67273;52.914;-0.982;2023-03-24T17:33:30;3.20;;;1.30;;
53549;SDS011;67273;52.914;-0.982;2023-03-24T17:36:24;1.95;;;1.05;;
53549;SDS011;67273;52.914;-0.982;2023-03-24T17:39:22;2.15;;;1.20;;
53549;SDS011;67273;52.914;-0.982;2023-03-24T17:42:36;3.13;;;1.70;;
53549;SDS011;67273;52.914;-0.982;2023-03-24T17:48:58;2.10;;;1.30;;
53549;SDS011;67273;52.914;-0.982;2023-03-24T17:51:57;3.30;;;1.40;;
53549;SDS011;67273;52.914;-0.982;2023-03-24T17:55:02;3.42;;;1.63;;
53549;SDS011;67273;52.914;-0.982;2023-03-24T17:58:07;3.13;;;1.45;;
53549;SDS011;67273;52.914;-0.982;2023-03-24T18:01:05;2.83;;;1.40;;
53549;SDS011;67273;52.914;-0.982;2023-03-24T18:10:27;3.30;;;1.30;;
53549;SDS011;67273;52.914;-0.982;2023-03-24T18:13:31;2.50;;;1.30;;
53549;SDS011;67273;52.914;-0.982;2023-03-24T18:16:41;2.83;;;1.33;;
53549;SDS011;67273;52.914;-0.982;2023-03-24T18:22:53;3.00;;;1.45;;
53549;SDS011;67273;52.914;-0.982;2023-03-24T18:32:40;4.53;;;1.58;;
53549;SDS011;67273;52.914;-0.982;2023-03-24T18:35:10;4.43;;;1.80;;
53549;SDS011;67273;52.914;-0.982;2023-03-24T18:37:40;6.43;;;2.00;;
53549;SDS011;67273;52.914;-0.982;2023-03-24T18:40:07;5.97;;;1.50;;
53549;SDS011;67273;52.914;-0.982;2023-03-24T18:42:35;3.75;;;1.63;;
53549;SDS011;67273;52.914;-0.982;2023-03-24T18:45:02;5.20;;;1.70;;
53549;SDS011;67273;52.914;-0.982;2023-03-24T18:47:29;3.70;;;1.70;;
53549;SDS011;67273;52.914;-0.982;2023-03-24T18:49:58;4.00;;;1.70;;
53549;SDS011;67273;52.914;-0.982;2023-03-24T18:52:32;4.82;;;1.58;;
53549;SDS011;67273;52.914;-0.982;2023-03-24T18:54:59;4.35;;;1.60;;
53549;SDS011;67273;52.914;-0.982;2023-03-24T18:57:27;5.32;;;1.63;;
53549;SDS011;67273;52.914;-0.982;2023-03-24T18:59:53;2.67;;;1.55;;
53549;SDS011;67273;52.914;-0.982;2023-03-24T19:02:20;2.75;;;1.50;;
53549;SDS011;67273;52.914;-0.982;2023-03-24T19:04:47;4.85;;;1.48;;
53549;SDS011;67273;52.914;-0.982;2023-03-24T19:07:14;3.42;;;1.40;;
53549;SDS011;67273;52.914;-0.982;2023-03-24T19:09:50;4.78;;;1.55;;
53549;SDS011;67273;52.914;-0.982;2023-03-24T19:12:18;3.13;;;1.50;;
53549;SDS011;67273;52.914;-0.982;2023-03-24T19:14:44;3.55;;;1.33;;
53549;SDS011;67273;52.914;-0.982;2023-03-24T19:17:11;2.60;;;1.40;;
53549;SDS011;67273;52.914;-0.982;2023-03-24T19:19:37;2.38;;;1.33;;
53549;SDS011;67273;52.914;-0.982;2023-03-24T19:22:06;3.10;;;1.65;;
53549;SDS011;67273;52.914;-0.982;2023-03-24T19:24:33;2.90;;;1.50;;
53549;SDS011;67273;52.914;-0.982;2023-03-24T19:27:02;3.30;;;1.60;;
53549;SDS011;67273;52.914;-0.982;2023-03-24T19:29:29;4.85;;;1.52;;
53549;SDS011;67273;52.914;-0.982;2023-03-24T19:31:58;3.60;;;1.50;;
53549;SDS011;67273;52.914;-0.982;2023-03-24T19:34:32;3.25;;;1.50;;
53549;SDS011;67273;52.914;-0.982;2023-03-24T19:37:08;3.38;;;1.55;;
53549;SDS011;67273;52.914;-0.982;2023-03-24T19:39:52;4.25;;;1.52;;
53549;SDS011;67273;52.914;-0.982;2023-03-24T19:42:28;3.42;;;1.58;;
53549;SDS011;67273;52.914;-0.982;2023-03-24T19:45:01;3.30;;;1.60;;
53549;SDS011;67273;52.914;-0.982;2023-03-24T19:47:35;3.13;;;1.38;;
53549;SDS011;67273;52.914;-0.982;2023-03-24T19:50:08;4.00;;;1.70;;
53549;SDS011;67273;52.914;-0.982;2023-03-24T19:52:43;6.47;;;1.80;;
53549;SDS011;67273;52.914;-0.982;2023-03-24T19:55:15;10.20;;;2.10;;
53549;SDS011;67273;52.914;-0.982;2023-03-24T19:57:51;10.63;;;2.08;;
53549;SDS011;67273;52.914;-0.982;2023-03-24T20:00:25;9.38;;;2.13;;
53549;SDS011;67273;52.914;-0.982;2023-03-24T20:02:57;6.88;;;1.98;;
53549;SDS011;67273;52.914;-0.982;2023-03-24T20:05:23;7.22;;;2.10;;
53549;SDS011;67273;52.914;-0.982;2023-03-24T20:07:49;5.32;;;2.03;;
53549;SDS011;67273;52.914;-0.982;2023-03-24T20:10:19;14.27;;;3.22;;
53549;SDS011;67273;52.914;-0.982;2023-03-24T20:12:45;7.15;;;2.20;;
53549;SDS011;67273;52.914;-0.982;2023-03-24T20:15:12;8.77;;;2.33;;
53549;SDS011;67273;52.914;-0.982;2023-03-24T20:17:39;10.35;;;2.05;;
53549;SDS011;67273;52.914;-0.982;2023-03-24T20:20:06;13.57;;;2.35;;
53549;SDS011;67273;52.914;-0.982;2023-03-24T20:22:35;7.22;;;2.20;;
53549;SDS011;67273;52.914;-0.982;2023-03-24T20:25:07;7.35;;;2.13;;
53549;SDS011;67273;52.914;-0.982;2023-03-24T20:27:33;7.60;;;2.40;;
53549;SDS011;67273;52.914;-0.982;2023-03-24T20:30:00;9.18;;;2.67;;
53549;SDS011;67273;52.914;-0.982;2023-03-24T20:32:27;6.82;;;2.33;;
53549;SDS011;67273;52.914;-0.982;2023-03-24T20:34:53;6.97;;;2.33;;
53549;SDS011;67273;52.914;-0.982;2023-03-24T20:37:19;7.60;;;2.20;;
53549;SDS011;67273;52.914;-0.982;2023-03-24T20:39:46;6.50;;;2.15;;
53549;SDS011;67273;52.914;-0.982;2023-03-24T20:42:13;7.43;;;1.90;;
53549;SDS011;67273;52.914;-0.982;2023-03-24T20:44:42;4.18;;;1.88;;
53549;SDS011;67273;52.914;-0.982;2023-03-24T20:47:09;7.45;;;2.15;;
53549;SDS011;67273;52.914;-0.982;2023-03-24T20:49:37;5.47;;;2.05;;
53549;SDS011;67273;52.914;-0.982;2023-03-24T20:52:04;6.90;;;2.22;;
53549;SDS011;67273;52.914;-0.982;2023-03-24T20:54:31;4.85;;;2.00;;
53549;SDS011;67273;52.914;-0.982;2023-03-24T20:56:58;5.57;;;2.20;;